createdAt,value
2019-04-25T00:04:34.045Z,91.20
2019-04-25T00:07:16.284Z,91.30
2019-04-25T00:09:58.779Z,91.40
2019-04-25T00:12:43.187Z,91.30
2019-04-25T00:15:25.589Z,91.60
2019-04-25T00:18:07.865Z,91.80
2019-04-25T00:20:54.380Z,92.00
2019-04-25T00:23:37.223Z,92.00
2019-04-25T00:29:18.807Z,91.90
2019-04-25T00:32:01.690Z,92.10
2019-04-25T00:34:45.440Z,92.20
2019-04-25T00:37:27.566Z,91.70
2019-04-25T00:42:53.799Z,92.30
2019-04-25T00:45:35.689Z,92.30
2019-04-25T00:48:18.362Z,92.20
2019-04-25T00:51:01.744Z,92.50
2019-04-25T00:53:45.027Z,92.80
2019-04-25T00:56:27.258Z,92.90
2019-04-25T01:05:46.075Z,92.70
2019-04-25T01:08:28.385Z,92.60
2019-04-25T01:11:11.503Z,92.50
2019-04-25T01:13:54.440Z,92.90
2019-04-25T01:16:36.899Z,92.60
2019-04-25T01:19:18.938Z,92.60
2019-04-25T01:22:01.176Z,92.80
2019-04-25T01:24:43.956Z,93.10
2019-04-25T01:27:26.390Z,93.10
2019-04-25T01:30:08.287Z,93.00
2019-04-25T01:32:50.845Z,93.20
2019-04-25T01:44:51.683Z,93.40
2019-04-25T01:47:34.044Z,93.90
2019-04-25T01:50:15.951Z,94.10
2019-04-25T01:52:58.732Z,94.40
2019-04-25T01:55:53.015Z,94.00
2019-04-25T01:58:25.572Z,94.30
2019-04-25T02:01:08.183Z,94.60
2019-04-25T02:03:50.416Z,94.50
2019-04-25T02:06:33.564Z,95.00
2019-04-25T02:09:15.641Z,94.90
2019-04-25T02:12:20.192Z,94.90
2019-04-25T02:15:03.975Z,95.20
2019-04-25T02:17:46.290Z,95.40
2019-04-25T02:20:28.781Z,95.40
2019-04-25T02:23:10.854Z,95.20
2019-04-25T02:26:06.101Z,95.30
2019-04-25T02:28:36.063Z,95.50
2019-04-25T02:31:18.469Z,95.70
2019-04-25T02:34:03.273Z,95.80
2019-04-25T02:36:47.078Z,95.80
2019-04-25T02:39:27.863Z,95.80
2019-04-25T02:42:09.813Z,95.70
2019-04-25T02:47:56.615Z,95.40
2019-04-25T02:50:46.288Z,95.30
2019-04-25T02:53:49.335Z,95.00
2019-04-25T02:56:37.710Z,95.20
2019-04-25T02:59:15.153Z,95.20
2019-04-25T03:01:58.987Z,95.30
2019-04-25T03:04:44.203Z,95.40
2019-04-25T03:07:26.167Z,95.20
2019-04-25T03:10:09.808Z,95.20
2019-04-25T03:12:51.567Z,95.10
2019-04-25T03:15:34.233Z,95.00
2019-04-25T03:18:19.112Z,95.00
2019-04-25T03:21:24.975Z,95.10
2019-04-25T03:24:26.247Z,94.90
2019-04-25T03:27:09.159Z,94.90
2019-04-25T03:29:50.903Z,94.90
2019-04-25T03:32:35.567Z,95.10
2019-04-25T03:35:17.346Z,94.90
2019-04-25T03:37:59.066Z,95.00
2019-04-25T03:40:41.465Z,95.20
2019-04-25T03:43:23.317Z,95.10
2019-04-25T03:46:06.173Z,95.00
2019-04-25T03:48:49.057Z,95.10
2019-04-25T03:51:31.319Z,95.30
2019-04-25T03:54:14.304Z,95.40
2019-04-25T03:56:56.297Z,95.40
2019-04-25T03:59:38.427Z,95.40
2019-04-25T04:02:20.349Z,95.40
2019-04-25T04:05:04.587Z,95.40
2019-04-25T04:07:45.269Z,95.50
2019-04-25T04:10:27.717Z,95.60
2019-04-25T04:13:10.661Z,95.80
2019-04-25T04:15:53.288Z,95.90
2019-04-25T04:18:39.062Z,95.60
2019-04-25T04:27:37.947Z,95.60
2019-04-25T04:30:18.607Z,95.60
2019-04-25T04:33:08.564Z,95.40
2019-04-25T04:36:19.057Z,95.30
2019-04-25T04:45:58.526Z,95.70
2019-04-25T04:48:48.054Z,95.90
2019-04-25T04:55:04.912Z,96.00
2019-04-25T05:11:15.829Z,97.10
2019-04-25T05:14:26.672Z,96.90
2019-04-25T05:24:04.815Z,97.10
2019-04-25T05:27:15.417Z,97.50
2019-04-25T05:30:21.245Z,98.20
2019-04-25T05:33:04.002Z,98.70
2019-04-25T05:35:46.664Z,98.90
2019-04-25T05:38:29.372Z,99.00
2019-04-25T05:44:27.289Z,99.10
2019-04-25T05:47:09.580Z,99.20
2019-04-25T05:49:51.478Z,99.20
2019-04-25T05:52:33.838Z,99.10
2019-04-25T05:55:18.528Z,99.20
2019-04-25T05:57:59.415Z,99.20
2019-04-25T06:00:41.555Z,99.30
2019-04-25T06:03:24.918Z,99.20
2019-04-25T06:06:07.572Z,99.20
2019-04-25T06:08:55.074Z,99.20
2019-04-25T06:14:36.646Z,99.30
2019-04-25T06:17:24.803Z,99.40
2019-04-25T06:20:29.591Z,99.30
2019-04-25T06:23:36.820Z,98.90
2019-04-25T06:29:59.164Z,98.90
2019-04-25T06:32:58.928Z,98.80
2019-04-25T06:35:41.314Z,98.80
2019-04-25T06:38:26.071Z,98.90
2019-04-25T06:41:07.404Z,98.90
2019-04-25T06:43:51.100Z,99.00
2019-04-25T06:46:51.664Z,99.00
2019-04-25T06:49:37.359Z,98.90
2019-04-25T06:52:21.501Z,98.90
2019-04-25T06:55:04.112Z,98.80
2019-04-25T06:57:46.455Z,98.80
2019-04-25T07:00:30.077Z,98.80
2019-04-25T07:03:13.978Z,98.60
2019-04-25T07:05:57.140Z,98.60
2019-04-25T07:08:38.958Z,98.80
2019-04-25T07:11:21.013Z,98.40
2019-04-25T07:14:04.165Z,98.30
2019-04-25T07:16:46.406Z,98.30
2019-04-25T07:19:28.345Z,98.50
2019-04-25T07:22:10.430Z,98.40
2019-04-25T07:24:53.756Z,98.50
2019-04-25T07:34:23.968Z,98.80
2019-04-25T07:37:25.991Z,98.60
2019-04-25T07:40:08.292Z,98.60
2019-04-25T07:42:50.859Z,98.70
2019-04-25T07:45:34.569Z,98.80
2019-04-25T07:48:16.764Z,98.70
2019-04-25T07:50:58.720Z,99.20
2019-04-25T07:53:40.672Z,98.80
2019-04-25T07:56:24.129Z,99.00
2019-04-25T07:59:06.669Z,99.00
2019-04-25T08:01:48.632Z,99.00
2019-04-25T08:04:31.797Z,99.40
2019-04-25T08:07:14.257Z,99.00
2019-04-25T08:09:56.458Z,99.10
2019-04-25T08:12:39.408Z,98.80
2019-04-25T08:18:36.069Z,98.90
2019-04-25T08:21:18.763Z,99.00
2019-04-25T08:24:03.000Z,98.90
2019-04-25T08:26:46.044Z,98.10
2019-04-25T08:29:27.979Z,97.10
2019-04-25T08:32:10.645Z,96.80
2019-04-25T08:34:54.209Z,96.60
2019-04-25T08:37:36.610Z,95.50
2019-04-25T08:40:18.279Z,96.30
2019-04-25T08:43:00.416Z,95.80
2019-04-25T08:45:42.221Z,94.70
2019-04-25T08:48:27.189Z,95.30
2019-04-25T08:51:13.530Z,96.00
2019-04-25T08:54:01.426Z,95.80
2019-04-25T08:57:04.313Z,95.20
2019-04-25T09:03:05.961Z,95.00
2019-04-25T09:05:49.488Z,96.10
2019-04-25T09:08:31.484Z,95.40
2019-04-25T09:11:13.775Z,96.50
2019-04-25T09:13:56.659Z,96.30
2019-04-25T09:16:39.853Z,95.80
2019-04-25T09:19:21.648Z,95.20
2019-04-25T09:22:04.043Z,95.30
2019-04-25T09:24:46.066Z,94.30
2019-04-25T09:27:27.891Z,94.00
2019-04-25T09:30:09.690Z,94.90
2019-04-25T09:32:53.358Z,95.80
2019-04-25T09:38:18.208Z,95.60
2019-04-25T09:41:00.573Z,94.90
2019-04-25T09:43:42.387Z,94.60
2019-04-25T09:46:28.951Z,94.90
2019-04-25T09:49:16.289Z,94.50
2019-04-25T09:58:55.021Z,94.40
2019-04-25T10:01:56.512Z,95.10
2019-04-25T10:04:39.179Z,95.10
2019-04-25T10:07:21.497Z,94.10
2019-04-25T10:10:03.799Z,94.30
2019-04-25T10:12:45.835Z,93.90
2019-04-25T10:15:27.833Z,93.60
2019-04-25T10:18:09.963Z,93.60
2019-04-25T10:20:52.157Z,94.10
2019-04-25T10:23:34.853Z,93.90
2019-04-25T10:26:17.721Z,94.60
2019-04-25T10:29:00.128Z,94.40
2019-04-25T10:31:44.296Z,94.10
2019-04-25T10:34:26.068Z,93.40
2019-04-25T10:37:08.398Z,94.20
2019-04-25T10:42:29.211Z,93.40
2019-04-25T10:45:21.231Z,93.30
2019-04-25T10:47:56.282Z,93.50
2019-04-25T10:50:40.042Z,93.40
2019-04-25T10:53:23.485Z,93.20
2019-04-25T10:56:06.058Z,93.40
2019-04-25T10:58:48.422Z,93.30
2019-04-25T11:01:30.477Z,94.10
2019-04-25T11:07:34.350Z,93.70
2019-04-25T11:10:16.646Z,93.60
2019-04-25T11:12:59.071Z,94.70
2019-04-25T11:15:41.964Z,94.50
2019-04-25T11:18:25.487Z,93.70
2019-04-25T11:21:07.187Z,93.30
2019-04-25T11:23:50.031Z,93.70
2019-04-25T11:26:34.488Z,93.80
2019-04-25T11:29:15.708Z,94.30
2019-04-25T11:31:58.057Z,95.10
2019-04-25T11:34:40.357Z,94.40
2019-04-25T11:37:24.030Z,94.00
2019-04-25T11:40:27.423Z,93.60
2019-04-25T11:43:29.058Z,93.80
2019-04-25T11:46:10.882Z,93.40
2019-04-25T11:48:54.692Z,93.20
2019-04-25T11:51:36.861Z,93.30
2019-04-25T11:54:19.306Z,93.60
2019-04-25T11:57:01.230Z,93.60
2019-04-25T11:59:46.596Z,94.10
2019-04-25T12:02:27.200Z,93.80
2019-04-25T12:05:09.816Z,93.70
2019-04-25T12:07:51.842Z,93.80
2019-04-25T12:10:34.676Z,93.40
2019-04-25T12:13:17.539Z,93.80
2019-04-25T12:15:59.712Z,93.80
2019-04-25T12:18:41.675Z,93.80
2019-04-25T12:21:24.047Z,93.60
2019-04-25T12:24:06.103Z,93.20
2019-04-25T12:26:48.657Z,93.20
2019-04-25T12:29:31.156Z,92.80
2019-04-25T12:32:14.178Z,92.90
2019-04-25T12:34:56.221Z,92.60
2019-04-25T12:37:37.993Z,92.50
2019-04-25T12:40:20.278Z,92.40
2019-04-25T12:43:03.133Z,92.40
2019-04-25T12:49:16.565Z,92.50
2019-04-25T12:51:58.904Z,92.50
2019-04-25T12:54:41.294Z,91.80
2019-04-25T12:57:24.075Z,92.00
2019-04-25T13:00:06.515Z,92.10
2019-04-25T13:02:48.412Z,91.80
2019-04-25T13:05:30.345Z,92.10
2019-04-25T13:08:14.294Z,91.90
2019-04-25T13:11:07.549Z,91.60
2019-04-25T13:13:40.133Z,91.60
2019-04-25T13:16:24.236Z,91.70
2019-04-25T13:19:16.481Z,91.40
2019-04-25T13:21:49.684Z,90.80
2019-04-25T13:24:31.627Z,90.90
2019-04-25T13:33:33.551Z,89.70
2019-04-25T13:36:16.327Z,87.90
2019-04-25T13:38:58.578Z,88.10
2019-04-25T13:41:40.714Z,87.60
2019-04-25T13:44:24.336Z,89.60
2019-04-25T13:47:06.375Z,89.60
2019-04-25T13:49:48.543Z,88.40
2019-04-25T13:52:31.324Z,88.80
2019-04-25T13:55:13.749Z,88.80
2019-04-25T13:57:55.559Z,88.60
2019-04-25T14:00:38.026Z,86.90
2019-04-25T14:03:20.669Z,85.60
2019-04-25T14:06:04.619Z,83.50
2019-04-25T14:08:46.764Z,81.80
2019-04-25T14:11:30.065Z,71.00
2019-04-25T14:14:12.263Z,73.60
2019-04-25T14:17:15.998Z,74.50
2019-04-25T14:23:36.186Z,78.40
2019-04-25T14:26:18.691Z,80.00
2019-04-25T14:29:00.688Z,82.30
2019-04-25T14:31:48.238Z,82.00
2019-04-25T14:34:27.841Z,83.20
2019-04-25T14:37:09.609Z,83.20
2019-04-25T14:39:51.703Z,82.20
2019-04-25T14:42:34.033Z,82.10
2019-04-25T14:45:16.643Z,82.50
2019-04-25T14:47:58.861Z,82.40
2019-04-25T14:50:41.349Z,82.40
2019-04-25T14:53:24.229Z,81.20
2019-04-25T14:56:25.913Z,82.20
2019-04-25T14:59:08.680Z,72.60
2019-04-25T15:01:50.373Z,65.80
2019-04-25T15:04:33.155Z,73.30
2019-04-25T15:07:15.354Z,74.80
2019-04-25T15:09:57.976Z,69.40
2019-04-25T15:12:40.055Z,62.30
2019-04-25T15:15:22.351Z,61.00
2019-04-25T15:18:05.927Z,65.30
2019-04-25T15:20:48.158Z,69.00
2019-04-25T15:23:30.180Z,70.70
2019-04-25T15:26:12.101Z,74.80
2019-04-25T15:28:54.962Z,78.70
2019-04-25T15:31:36.783Z,71.00
2019-04-25T15:34:18.850Z,73.70
2019-04-25T15:37:26.498Z,72.40
2019-04-25T15:40:34.456Z,68.50
2019-04-25T15:46:30.287Z,65.10
2019-04-25T15:49:31.634Z,69.70
2019-04-25T15:52:13.783Z,66.00
2019-04-25T15:55:06.390Z,70.60
2019-04-25T15:57:40.811Z,68.60
2019-04-25T16:03:38.886Z,71.60
2019-04-25T16:06:21.372Z,70.00
2019-04-25T16:09:04.574Z,73.10
2019-04-25T16:11:46.794Z,74.50
2019-04-25T16:14:28.771Z,69.10
2019-04-25T16:17:10.975Z,74.00
2019-04-25T16:19:52.994Z,70.90
2019-04-25T16:22:36.556Z,73.70
2019-04-25T16:25:20.015Z,72.40
2019-04-25T16:28:02.120Z,74.80
2019-04-25T16:30:44.082Z,71.80
2019-04-25T16:33:26.443Z,68.10
2019-04-25T16:36:09.265Z,72.00
2019-04-25T16:38:51.930Z,72.50
2019-04-25T16:41:33.838Z,74.10
2019-04-25T16:44:18.746Z,75.00
2019-04-25T16:47:00.673Z,76.10
2019-04-25T16:49:42.826Z,75.60
2019-04-25T16:52:25.638Z,76.50
2019-04-25T16:55:08.494Z,76.40
2019-04-25T16:57:49.147Z,76.70
2019-04-25T17:00:57.699Z,76.60
2019-04-25T17:07:03.744Z,77.30
2019-04-25T17:13:09.289Z,73.00
2019-04-25T17:16:37.428Z,74.40
2019-04-25T17:19:45.955Z,75.00
2019-04-25T17:32:30.682Z,73.90
2019-04-25T17:35:59.339Z,68.70
2019-04-25T17:39:07.886Z,65.80
2019-04-25T17:41:57.449Z,64.90
2019-04-25T17:44:59.162Z,65.30
2019-04-25T17:47:52.326Z,63.50
2019-04-25T17:50:25.800Z,62.70
2019-04-25T17:53:07.790Z,61.30
2019-04-25T17:55:49.992Z,61.20
2019-04-25T17:58:33.291Z,61.80
2019-04-25T18:01:19.583Z,73.40
2019-04-25T18:04:01.801Z,76.10
2019-04-25T18:06:44.381Z,69.40
2019-04-25T18:09:26.569Z,65.10
2019-04-25T18:12:08.643Z,65.00
2019-04-25T18:14:51.077Z,65.80
2019-04-25T18:17:33.943Z,64.20
2019-04-25T18:20:21.041Z,63.50
2019-04-25T18:29:46.374Z,63.30
2019-04-25T18:32:32.117Z,65.80
2019-04-25T18:44:50.990Z,63.80
2019-04-25T18:47:25.214Z,66.20
2019-04-25T18:54:03.889Z,66.50
2019-04-25T18:56:52.709Z,66.20
2019-04-25T19:03:30.513Z,64.40
2019-04-25T19:06:15.734Z,62.90
2019-04-25T19:08:58.843Z,65.50
2019-04-25T19:11:41.048Z,67.00
2019-04-25T19:14:22.967Z,65.50
2019-04-25T19:17:06.699Z,67.50
2019-04-25T19:19:48.625Z,69.00
2019-04-25T19:22:30.949Z,70.30
2019-04-25T19:25:13.269Z,70.20
2019-04-25T19:27:55.203Z,71.10
2019-04-25T19:30:37.219Z,71.90
2019-04-25T19:33:19.334Z,71.60
2019-04-25T19:36:01.523Z,71.40
2019-04-25T19:38:43.951Z,73.40
2019-04-25T19:45:01.270Z,73.20
2019-04-25T19:47:43.280Z,72.90
2019-04-25T19:50:25.540Z,72.80
2019-04-25T19:53:07.830Z,73.90
2019-04-25T19:55:49.926Z,74.10
2019-04-25T19:58:32.118Z,73.80
2019-04-25T20:01:14.081Z,73.90
2019-04-25T20:04:15.600Z,74.10
2019-04-25T20:07:16.576Z,73.90
2019-04-25T20:10:17.813Z,74.00
2019-04-25T20:13:00.276Z,73.90
2019-04-25T20:15:44.005Z,71.80
2019-04-25T20:18:26.318Z,72.40
2019-04-25T20:21:08.250Z,71.90
2019-04-25T20:23:50.201Z,72.70
2019-04-25T20:26:32.585Z,73.40
2019-04-25T20:29:14.629Z,74.60
2019-04-25T20:31:56.752Z,74.80
2019-04-25T20:34:39.271Z,73.90
2019-04-25T20:37:21.897Z,73.90
2019-04-25T20:40:03.918Z,73.50
2019-04-25T20:42:46.977Z,73.40
2019-04-25T20:45:29.220Z,72.50
2019-04-25T20:48:11.735Z,73.10
2019-04-25T20:50:54.518Z,72.40
2019-04-25T20:53:36.524Z,72.50
2019-04-25T20:56:18.465Z,71.60
2019-04-25T20:59:00.548Z,72.60
2019-04-25T21:01:42.884Z,73.50
2019-04-25T21:04:43.702Z,73.40
2019-04-25T21:07:25.618Z,75.80
2019-04-25T21:10:07.724Z,75.50
2019-04-25T21:12:50.297Z,74.70
2019-04-25T21:15:57.025Z,73.80
2019-04-25T21:19:04.576Z,74.40
2019-04-25T21:22:06.615Z,74.00
2019-04-25T21:24:49.481Z,74.30
2019-04-25T21:27:32.127Z,74.10
2019-04-25T21:30:13.970Z,75.60
2019-04-25T21:32:57.221Z,76.40
2019-04-25T21:35:39.390Z,81.20
2019-04-25T21:38:21.346Z,84.40
2019-04-25T21:44:11.573Z,89.80
2019-04-25T21:46:53.701Z,90.80
2019-04-25T21:49:36.791Z,91.60
2019-04-25T21:52:18.692Z,92.80
2019-04-25T21:55:01.537Z,93.00
2019-04-25T21:57:43.509Z,93.00
2019-04-25T22:00:45.287Z,93.40
2019-04-25T22:03:28.032Z,93.60
2019-04-25T22:06:10.373Z,94.00
2019-04-25T22:08:52.272Z,93.90
2019-04-25T22:11:35.052Z,94.00
2019-04-25T22:14:18.225Z,93.90
2019-04-25T22:17:00.905Z,93.90
2019-04-25T22:19:43.712Z,93.70
2019-04-25T22:22:26.055Z,93.80
2019-04-25T22:25:08.070Z,93.70
2019-04-25T22:27:50.566Z,93.60
2019-04-25T22:30:32.455Z,93.70
2019-04-25T22:33:33.726Z,93.80
2019-04-25T22:36:18.023Z,93.80
2019-04-25T22:39:19.278Z,93.70
2019-04-25T22:42:01.990Z,93.80
2019-04-25T22:44:44.798Z,93.90
2019-04-25T22:47:27.053Z,94.30
2019-04-25T22:50:09.156Z,93.90
2019-04-25T22:52:51.777Z,93.90
2019-04-25T22:55:34.285Z,93.90
2019-04-25T22:58:16.800Z,93.90
2019-04-25T23:00:59.014Z,93.90
2019-04-25T23:03:43.566Z,93.90
2019-04-25T23:06:25.869Z,94.10
2019-04-25T23:09:08.416Z,93.90
2019-04-25T23:11:50.344Z,94.00
2019-04-25T23:14:32.454Z,94.10
2019-04-25T23:17:14.572Z,94.20
2019-04-25T23:19:56.733Z,94.10
2019-04-25T23:22:38.548Z,94.00
2019-04-25T23:25:26.011Z,94.40
2019-04-25T23:28:13.925Z,94.60
2019-04-25T23:31:20.485Z,94.10
2019-04-25T23:34:02.441Z,94.50
2019-04-25T23:36:44.603Z,94.40
2019-04-25T23:39:26.412Z,94.20
2019-04-25T23:42:09.322Z,94.40
2019-04-25T23:44:52.069Z,94.40
2019-04-25T23:47:34.066Z,94.50
2019-04-25T23:50:16.849Z,94.90
2019-04-25T23:52:59.387Z,94.40
2019-04-25T23:55:41.667Z,94.50
2019-04-25T23:58:23.997Z,94.40
